Time,TemperatureF,DewpointF,PressureIn,WindDirection,WindDirectionDegrees,WindSpeedMPH,WindSpeedGustMPH,Humidity,HourlyPrecipIn,Conditions,Clouds,dailyrainin,SolarRadiationWatts/m^2,SoftwareType,DateUTC
2013-07-19 00:00:00,81.5,77.3,30.13,NNE,27,0.0,1.0,87,0.00,,SCT,0.00,0.00,VWS V14.01,2013-07-19 04:00:00,
2013-07-19 01:00:00,82.5,76.4,30.13,NNE,23,0.0,1.0,82,0.00,,SCT,0.00,0.00,VWS V14.01,2013-07-19 05:00:00,
2013-07-19 02:00:00,79.0,76.5,30.12,NNE,19,0.0,5.0,92,0.00,,SCT,0.00,0.00,VWS V14.01,2013-07-19 06:00:00,
2013-07-19 02:40:00,78.1,76.2,30.11,ENE,71,0.0,4.0,94,0.00,,SCT,0.00,0.00,VWS V14.01,2013-07-19 06:40:00,
2013-07-19 02:41:00,78.0,76.1,30.12,ENE,71,0.0,4.0,94,0.00,,SCT,0.00,0.00,VWS V14.01,2013-07-19 06:41:00,
2013-07-19 02:46:00,77.8,75.9,30.11,ENE,71,0.0,4.0,94,0.00,,SCT,0.00,0.00,VWS V14.01,2013-07-19 06:46:00,
2013-07-19 02:51:00,77.8,75.9,30.11,ENE,71,0.0,4.0,94,0.00,,SCT,0.00,0.00,VWS V14.01,2013-07-19 06:51:00,
2013-07-19 02:56:00,77.6,75.7,30.11,ENE,71,0.0,1.0,94,0.00,,SCT,0.00,0.00,VWS V14.01,2013-07-19 06:56:00,
2013-07-19 03:00:00,77.7,75.8,30.11,ENE,71,0.0,4.0,94,0.00,,SCT,0.00,0.00,VWS V14.01,2013-07-19 07:00:00,
2013-07-19 03:01:00,77.5,76.0,30.11,ENE,71,0.0,1.0,95,0.00,,SCT,0.00,0.00,VWS V14.01,2013-07-19 07:01:00,
2013-07-19 03:06:00,78.0,76.1,30.11,North,11,0.0,2.0,94,0.00,,SCT,0.00,0.00,VWS V14.01,2013-07-19 07:06:00,
2013-07-19 03:11:00,78.6,76.1,30.11,North,11,0.0,2.0,92,0.00,,SCT,0.00,0.00,VWS V14.01,2013-07-19 07:11:00,
2013-07-19 03:16:00,78.7,75.9,30.11,North,11,0.0,2.0,91,0.00,,SCT,0.00,0.00,VWS V14.01,2013-07-19 07:16:00,
2013-07-19 03:21:00,78.7,75.9,30.11,North,11,0.0,2.0,91,0.00,,SCT,0.00,0.00,VWS V14.01,2013-07-19 07:21:00,
2013-07-19 03:26:00,78.4,75.9,30.11,North,11,0.0,2.0,92,0.00,,SCT,0.00,0.00,VWS V14.01,2013-07-19 07:26:00,
2013-07-19 03:31:00,77.9,75.7,30.11,NE,35,0.0,2.0,93,0.00,,SCT,0.00,0.00,VWS V14.01,2013-07-19 07:31:00,
2013-07-19 03:36:00,77.4,75.5,30.11,NE,35,1.0,2.0,94,0.01,,SCT,0.01,0.00,VWS V14.01,2013-07-19 07:36:00,
2013-07-19 03:41:00,77.2,75.3,30.11,NE,35,0.0,2.0,94,0.01,,SCT,0.01,0.00,VWS V14.01,2013-07-19 07:41:00,
2013-07-19 03:46:00,77.3,75.4,30.11,NE,35,0.0,2.0,94,0.01,,SCT,0.01,0.00,VWS V14.01,2013-07-19 07:46:00,
2013-07-19 03:51:00,77.3,75.4,30.11,NE,35,0.0,2.0,94,0.01,,SCT,0.01,0.00,VWS V14.01,2013-07-19 07:51:00,
2013-07-19 03:56:00,77.2,75.3,30.11,NE,35,0.0,1.0,94,0.01,,SCT,0.01,0.00,VWS V14.01,2013-07-19 07:56:00,
2013-07-19 04:00:00,77.3,75.4,30.11,NE,35,0.0,2.0,94,0.01,,SCT,0.01,0.00,VWS V14.01,2013-07-19 08:00:00,
2013-07-19 04:01:00,77.0,75.5,30.11,NE,35,0.0,1.0,95,0.01,,SCT,0.01,0.00,VWS V14.01,2013-07-19 08:01:00,
2013-07-19 04:06:00,76.8,75.3,30.11,NE,35,0.0,1.0,95,0.01,,SCT,0.01,0.00,VWS V14.01,2013-07-19 08:06:00,
2013-07-19 04:11:00,76.8,75.3,30.11,NE,35,0.0,1.0,95,0.01,,SCT,0.01,0.00,VWS V14.01,2013-07-19 08:11:00,
2013-07-19 04:16:00,76.7,75.2,30.11,NE,35,0.0,1.0,95,0.01,,SCT,0.01,0.00,VWS V14.01,2013-07-19 08:16:00,
2013-07-19 04:21:00,76.7,75.5,30.11,NE,35,0.0,1.0,96,0.01,,SCT,0.01,0.00,VWS V14.01,2013-07-19 08:21:00,
2013-07-19 04:25:00,76.7,75.5,30.11,NE,35,0.0,1.0,96,0.01,,SCT,0.01,0.00,VWS V14.01,2013-07-19 08:25:00,
2013-07-19 04:30:00,76.7,75.5,30.11,NE,35,0.0,1.0,96,0.01,,SCT,0.01,0.00,VWS V14.01,2013-07-19 08:30:00,
2013-07-19 04:35:00,76.8,75.6,30.11,NE,35,0.0,1.0,96,0.01,,SCT,0.01,0.00,VWS V14.01,2013-07-19 08:35:00,
2013-07-19 04:40:00,76.7,75.5,30.11,NE,35,0.0,1.0,96,0.01,,SCT,0.01,0.00,VWS V14.01,2013-07-19 08:40:00,
2013-07-19 04:45:00,76.7,75.5,30.11,NE,35,0.0,1.0,96,0.01,,SCT,0.01,0.00,VWS V14.01,2013-07-19 08:45:00,
2013-07-19 04:50:00,76.6,75.4,30.11,NE,35,0.0,1.0,96,0.01,,SCT,0.01,0.00,VWS V14.01,2013-07-19 08:50:00,
2013-07-19 04:55:00,76.6,75.4,30.11,NE,35,0.0,0.0,96,0.00,,SCT,0.01,0.00,VWS V14.01,2013-07-19 08:55:00,
2013-07-19 05:00:00,76.7,75.5,30.11,NE,35,0.0,0.0,96,0.00,,SCT,0.01,0.00,VWS V14.01,2013-07-19 09:00:00,
2013-07-19 05:05:00,76.6,75.4,30.11,NE,35,0.0,0.0,96,0.00,,SCT,0.01,0.00,VWS V14.01,2013-07-19 09:05:00,
2013-07-19 05:10:00,76.4,75.2,30.11,NE,35,0.0,0.0,96,0.00,,SCT,0.01,0.00,VWS V14.01,2013-07-19 09:10:00,
2013-07-19 05:15:00,76.4,75.2,30.11,NE,35,0.0,0.0,96,0.00,,SCT,0.01,0.00,VWS V14.01,2013-07-19 09:15:00,
2013-07-19 05:20:00,76.3,75.1,30.11,NE,35,0.0,0.0,96,0.00,,SCT,0.01,0.00,VWS V14.01,2013-07-19 09:20:00,
2013-07-19 05:25:00,76.2,75.0,30.11,NE,35,0.0,0.0,96,0.00,,SCT,0.01,0.00,VWS V14.01,2013-07-19 09:25:00,
2013-07-19 05:30:00,76.2,75.0,30.11,NE,35,0.0,0.0,96,0.00,,SCT,0.01,0.00,VWS V14.01,2013-07-19 09:30:00,
2013-07-19 05:35:00,76.2,75.0,30.11,NE,35,0.0,0.0,96,0.00,,SCT,0.01,0.00,VWS V14.01,2013-07-19 09:35:00,
2013-07-19 05:40:00,76.2,75.0,30.11,NE,35,0.0,0.0,96,0.00,,SCT,0.01,0.00,VWS V14.01,2013-07-19 09:40:00,
2013-07-19 05:45:00,76.0,74.8,30.11,NE,35,0.0,0.0,96,0.00,,SCT,0.01,0.00,VWS V14.01,2013-07-19 09:45:00,
2013-07-19 05:50:00,75.8,74.6,30.11,NE,35,0.0,0.0,96,0.00,,SCT,0.01,0.00,VWS V14.01,2013-07-19 09:50:00,
2013-07-19 05:55:00,76.0,75.1,30.11,NE,35,0.0,0.0,97,0.00,,SCT,0.01,0.00,VWS V14.01,2013-07-19 09:55:00,
2013-07-19 06:00:00,76.1,74.9,30.11,NE,35,0.0,0.0,96,0.00,,SCT,0.01,0.00,VWS V14.01,2013-07-19 10:00:00,
2013-07-19 06:05:00,76.2,75.0,30.11,NE,35,0.0,0.0,96,0.00,,SCT,0.01,0.00,VWS V14.01,2013-07-19 10:05:00,
2013-07-19 06:10:00,76.2,75.0,30.11,NE,35,0.0,1.0,96,0.00,,SCT,0.01,0.00,VWS V14.01,2013-07-19 10:10:00,
2013-07-19 06:15:00,76.4,75.2,30.11,NE,35,0.0,1.0,96,0.00,,SCT,0.01,5.00,VWS V14.01,2013-07-19 10:15:00,
2013-07-19 06:20:00,76.4,75.2,30.11,NE,35,0.0,1.0,96,0.00,,SCT,0.01,9.00,VWS V14.01,2013-07-19 10:20:00,
2013-07-19 06:25:00,76.5,75.3,30.11,NE,35,0.0,1.0,96,0.00,,SCT,0.01,11.00,VWS V14.01,2013-07-19 10:25:00,
2013-07-19 06:30:00,76.2,74.7,30.11,NE,35,0.0,1.0,95,0.00,,SCT,0.01,14.00,VWS V14.01,2013-07-19 10:30:00,
2013-07-19 06:35:00,76.3,75.1,30.11,NE,35,0.0,3.0,96,0.00,,SCT,0.01,19.00,VWS V14.01,2013-07-19 10:35:00,
2013-07-19 06:40:00,76.3,75.1,30.11,NE,35,0.0,3.0,96,0.00,,SCT,0.01,26.00,VWS V14.01,2013-07-19 10:40:00,
2013-07-19 06:45:00,76.1,74.6,30.11,NE,35,0.0,3.0,95,0.00,,SCT,0.01,33.00,VWS V14.01,2013-07-19 10:45:00,
2013-07-19 06:50:00,76.0,74.8,30.11,NE,35,0.0,3.0,96,0.00,,SCT,0.01,40.00,VWS V14.01,2013-07-19 10:50:00,
2013-07-19 06:55:00,76.2,75.0,30.11,NE,35,0.0,0.0,96,0.00,,SCT,0.01,44.00,VWS V14.01,2013-07-19 10:55:00,
2013-07-19 07:00:00,76.2,74.7,30.11,NE,35,0.0,0.0,95,0.00,,SCT,0.01,46.00,VWS V14.01,2013-07-19 11:00:00,
2013-07-19 07:05:00,76.4,75.2,30.11,NE,35,0.0,0.0,96,0.00,,SCT,0.01,46.00,VWS V14.01,2013-07-19 11:05:00,
2013-07-19 07:10:00,76.4,74.9,30.11,NE,35,0.0,0.0,95,0.00,,SCT,0.01,44.00,VWS V14.01,2013-07-19 11:10:00,
2013-07-19 07:15:00,76.6,75.4,30.11,NE,35,0.0,0.0,96,0.00,,SCT,0.01,42.00,VWS V14.01,2013-07-19 11:15:00,
2013-07-19 07:20:00,77.3,75.8,30.11,NE,35,0.0,0.0,95,0.00,,SCT,0.01,42.00,VWS V14.01,2013-07-19 11:20:00,
2013-07-19 07:25:00,77.3,75.4,30.11,NE,35,0.0,0.0,94,0.00,,SCT,0.01,46.00,VWS V14.01,2013-07-19 11:25:00,
2013-07-19 07:30:00,77.5,75.6,30.12,NE,35,0.0,1.0,94,0.00,,SCT,0.01,47.00,VWS V14.01,2013-07-19 11:30:00,
2013-07-19 07:35:00,77.5,75.6,30.11,NE,35,0.0,1.0,94,0.00,,SCT,0.01,49.00,VWS V14.01,2013-07-19 11:35:00,
2013-07-19 07:40:00,78.0,76.1,30.11,NE,35,0.0,1.0,94,0.00,,SCT,0.01,51.00,VWS V14.01,2013-07-19 11:40:00,
2013-07-19 07:45:00,78.3,76.1,30.11,NE,35,0.0,1.0,93,0.00,,SCT,0.01,53.00,VWS V14.01,2013-07-19 11:45:00,
2013-07-19 07:50:00,78.6,76.1,30.11,NE,35,0.0,1.0,92,0.00,,SCT,0.01,54.00,VWS V14.01,2013-07-19 11:50:00,
2013-07-19 07:55:00,78.9,76.4,30.11,NE,35,0.0,0.0,92,0.00,,SCT,0.01,56.00,VWS V14.01,2013-07-19 11:55:00,
2013-07-19 08:00:00,79.6,76.8,30.11,NE,35,0.0,0.0,91,0.00,,SCT,0.01,58.00,VWS V14.01,2013-07-19 12:00:00,
2013-07-19 08:05:00,79.6,76.4,30.12,NE,35,0.0,0.0,90,0.00,,SCT,0.01,62.00,VWS V14.01,2013-07-19 12:05:00,
2013-07-19 08:10:00,80.1,76.9,30.11,NE,35,0.0,0.0,90,0.00,,SCT,0.01,63.00,VWS V14.01,2013-07-19 12:10:00,
2013-07-19 08:15:00,80.6,77.1,30.12,NE,35,0.0,1.0,89,0.00,,SCT,0.01,65.00,VWS V14.01,2013-07-19 12:15:00,
2013-07-19 08:20:00,80.9,77.4,30.12,NE,35,0.0,1.0,89,0.00,,SCT,0.01,69.00,VWS V14.01,2013-07-19 12:20:00,
2013-07-19 08:25:00,81.5,77.6,30.12,NE,35,0.0,1.0,88,0.00,,SCT,0.01,70.00,VWS V14.01,2013-07-19 12:25:00,
2013-07-19 08:30:00,82.0,78.1,30.12,NE,35,0.0,2.0,88,0.00,,SCT,0.01,74.00,VWS V14.01,2013-07-19 12:30:00,
2013-07-19 08:35:00,82.3,78.1,30.12,NE,35,0.0,2.0,87,0.00,,SCT,0.01,77.00,VWS V14.01,2013-07-19 12:35:00,
2013-07-19 08:40:00,83.2,78.9,30.12,NE,35,0.0,2.0,87,0.00,,SCT,0.01,84.00,VWS V14.01,2013-07-19 12:40:00,
2013-07-19 08:45:00,83.4,79.1,30.12,NE,35,0.0,2.0,87,0.00,,SCT,0.01,100.00,VWS V14.01,2013-07-19 12:45:00,
2013-07-19 08:50:00,84.0,78.7,30.12,NE,35,0.0,2.0,84,0.00,,SCT,0.01,139.00,VWS V14.01,2013-07-19 12:50:00,
2013-07-19 08:55:00,84.8,78.3,30.12,NE,35,0.0,0.0,81,0.00,,SCT,0.01,195.00,VWS V14.01,2013-07-19 12:55:00,
2013-07-19 09:00:00,85.6,79.5,30.12,NE,35,0.0,1.0,82,0.00,,SCT,0.01,265.00,VWS V14.01,2013-07-19 13:00:00,
2013-07-19 09:05:00,85.5,79.4,30.11,NE,35,0.0,1.0,82,0.00,,SCT,0.01,334.00,VWS V14.01,2013-07-19 13:05:00,
2013-07-19 09:10:00,85.2,79.5,30.11,NE,35,0.0,1.0,83,0.00,,SCT,0.01,387.00,VWS V14.01,2013-07-19 13:10:00,
2013-07-19 09:15:00,86.2,77.3,30.11,NE,35,3.0,4.0,75,0.00,,SCT,0.01,417.00,VWS V14.01,2013-07-19 13:15:00,
2013-07-19 09:20:00,86.9,77.2,30.11,NE,35,2.0,4.0,73,0.00,,SCT,0.01,438.00,VWS V14.01,2013-07-19 13:20:00,
2013-07-19 09:25:00,87.6,77.5,30.11,NE,35,1.0,4.0,72,0.00,,SCT,0.01,448.00,VWS V14.01,2013-07-19 13:25:00,
2013-07-19 09:26:00,87.6,77.5,30.11,NE,35,3.0,4.0,72,0.00,,SCT,0.01,448.00,VWS V14.01,2013-07-19 13:26:00,
2013-07-19 09:31:00,88.2,77.2,30.11,NE,35,0.0,4.0,70,0.00,,SCT,0.01,461.00,VWS V14.01,2013-07-19 13:31:00,
2013-07-19 09:36:00,88.3,77.3,30.11,NE,35,2.0,4.0,70,0.00,,SCT,0.01,471.00,VWS V14.01,2013-07-19 13:36:00,
2013-07-19 09:41:00,88.3,77.3,30.11,NE,35,2.0,4.0,70,0.00,,SCT,0.01,471.00,VWS V14.01,2013-07-19 13:41:00,
2013-07-19 09:46:00,88.6,77.6,30.11,North,5,2.0,6.0,70,0.00,,SCT,0.01,499.00,VWS V14.01,2013-07-19 13:46:00,
2013-07-19 09:51:00,89.1,76.7,30.11,NNE,19,3.0,7.0,67,0.00,,SCT,0.01,515.00,VWS V14.01,2013-07-19 13:51:00,
2013-07-19 09:56:00,89.2,76.8,30.11,North,355,4.0,5.0,67,0.00,,SCT,0.01,529.00,VWS V14.01,2013-07-19 13:56:00,
2013-07-19 10:00:00,89.3,76.9,30.11,NNE,19,3.0,7.0,67,0.00,,SCT,0.01,515.00,VWS V14.01,2013-07-19 14:00:00,
2013-07-19 10:01:00,88.4,76.1,30.11,NE,42,4.0,7.0,67,0.00,,SCT,0.01,545.00,VWS V14.01,2013-07-19 14:01:00,
2013-07-19 10:06:00,88.8,76.4,30.11,North,9,4.0,7.0,67,0.00,,SCT,0.01,552.00,VWS V14.01,2013-07-19 14:06:00,
2013-07-19 10:11:00,89.9,77.0,30.11,NE,42,1.0,7.0,66,0.00,,SCT,0.01,571.00,VWS V14.01,2013-07-19 14:11:00,
2013-07-19 10:16:00,89.6,76.3,30.10,NE,40,0.0,7.0,65,0.00,,SCT,0.01,580.00,VWS V14.01,2013-07-19 14:16:00,
2013-07-19 10:21:00,90.0,77.6,30.10,NNE,22,1.0,7.0,67,0.00,,SCT,0.01,596.00,VWS V14.01,2013-07-19 14:21:00,
2013-07-19 10:26:00,89.9,77.9,30.10,NE,49,4.0,7.0,68,0.00,,SCT,0.01,606.00,VWS V14.01,2013-07-19 14:26:00,
2013-07-19 10:31:00,90.2,77.8,30.10,NNE,28,2.0,7.0,67,0.00,,SCT,0.01,615.00,VWS V14.01,2013-07-19 14:31:00,
2013-07-19 10:36:00,89.7,76.8,30.10,NE,38,6.0,9.0,66,0.00,,SCT,0.01,626.00,VWS V14.01,2013-07-19 14:36:00,
2013-07-19 10:41:00,89.8,77.4,30.10,NE,50,4.0,9.0,67,0.00,,SCT,0.01,636.00,VWS V14.01,2013-07-19 14:41:00,
2013-07-19 10:46:00,89.7,78.2,30.10,NNE,26,6.0,9.0,69,0.00,,SCT,0.01,645.00,VWS V14.01,2013-07-19 14:46:00,
2013-07-19 11:00:00,89.7,77.7,30.10,NNE,20,4.0,9.0,68,0.00,,SCT,0.01,659.00,VWS V14.01,2013-07-19 15:00:00,
2013-07-19 11:10:00,90.2,78.2,30.10,NNE,25,0.0,8.0,68,0.00,,SCT,0.01,689.00,VWS V14.01,2013-07-19 15:10:00,
2013-07-19 11:15:00,90.2,78.2,30.10,North,355,3.0,8.0,68,0.00,,SCT,0.01,700.00,VWS V14.01,2013-07-19 15:15:00,
2013-07-19 11:20:00,90.8,79.2,30.10,NNW,330,0.0,8.0,69,0.00,,SCT,0.01,703.00,VWS V14.01,2013-07-19 15:20:00,
2013-07-19 11:25:00,90.5,78.1,30.09,North,355,3.0,8.0,67,0.00,,SCT,0.01,710.00,VWS V14.01,2013-07-19 15:25:00,
2013-07-19 11:30:00,91.2,78.7,30.10,NNE,21,6.0,8.0,67,0.00,,SCT,0.01,724.00,VWS V14.01,2013-07-19 15:30:00,
2013-07-19 11:35:00,91.3,78.8,30.09,NW,309,5.0,8.0,67,0.00,,SCT,0.01,733.00,VWS V14.01,2013-07-19 15:35:00,
2013-07-19 11:40:00,90.6,77.2,30.09,NW,319,7.0,9.0,65,0.00,,SCT,0.01,737.00,VWS V14.01,2013-07-19 15:40:00,
2013-07-19 11:45:00,90.7,77.3,30.09,NW,315,6.0,9.0,65,0.00,,SCT,0.01,747.00,VWS V14.01,2013-07-19 15:45:00,
2013-07-19 11:50:00,90.5,77.1,30.09,NNW,327,1.0,9.0,65,0.00,,SCT,0.01,758.00,VWS V14.01,2013-07-19 15:50:00,
2013-07-19 11:55:00,90.1,78.6,30.09,West,279,6.0,8.0,69,0.00,,SCT,0.01,763.00,VWS V14.01,2013-07-19 15:55:00,
2013-07-19 12:00:00,90.3,78.3,30.09,WNW,282,4.0,9.0,68,0.00,,SCT,0.01,758.00,VWS V14.01,2013-07-19 16:00:00,
2013-07-19 12:05:00,90.5,78.5,30.09,NW,314,4.0,9.0,68,0.00,,SCT,0.01,763.00,VWS V14.01,2013-07-19 16:05:00,
2013-07-19 12:10:00,90.8,78.3,30.09,WNW,287,4.0,9.0,67,0.00,,SCT,0.01,773.00,VWS V14.01,2013-07-19 16:10:00,
2013-07-19 12:15:00,90.4,78.4,30.09,WNW,290,7.0,9.0,68,0.00,,SCT,0.01,779.00,VWS V14.01,2013-07-19 16:15:00,
2013-07-19 12:20:00,90.3,78.3,30.09,North,355,3.0,11.0,68,0.00,,SCT,0.01,775.00,VWS V14.01,2013-07-19 16:20:00,
2013-07-19 12:25:00,90.8,79.2,30.09,NNE,13,7.0,11.0,69,0.00,,SCT,0.01,782.00,VWS V14.01,2013-07-19 16:25:00,
2013-07-19 12:30:00,91.9,77.0,30.08,NNW,343,7.0,11.0,62,0.00,,SCT,0.01,796.00,VWS V14.01,2013-07-19 16:30:00,
2013-07-19 12:35:00,91.1,75.3,30.08,NNW,343,6.0,11.0,60,0.00,,SCT,0.01,791.00,VWS V14.01,2013-07-19 16:35:00,
2013-07-19 12:40:00,90.8,76.5,30.08,NW,319,4.0,11.0,63,0.00,,SCT,0.01,798.00,VWS V14.01,2013-07-19 16:40:00,
2013-07-19 12:45:00,91.4,78.0,30.08,NW,306,5.0,11.0,65,0.00,,SCT,0.01,798.00,VWS V14.01,2013-07-19 16:45:00,
2013-07-19 12:50:00,91.6,77.2,30.08,NNE,12,9.0,11.0,63,0.00,,SCT,0.01,810.00,VWS V14.01,2013-07-19 16:50:00,
2013-07-19 12:55:00,91.6,77.2,30.07,NW,312,7.0,8.0,63,0.00,,SCT,0.01,817.00,VWS V14.01,2013-07-19 16:55:00,
2013-07-19 13:00:00,91.5,77.1,30.07,NNW,333,3.0,11.0,63,0.00,,SCT,0.01,814.00,VWS V14.01,2013-07-19 17:00:00,
2013-07-19 13:05:00,91.2,77.3,30.07,NNE,16,5.0,11.0,64,0.00,,SCT,0.01,817.00,VWS V14.01,2013-07-19 17:05:00,
2013-07-19 13:10:00,91.8,77.4,30.07,NW,318,4.0,11.0,63,0.00,,SCT,0.01,819.00,VWS V14.01,2013-07-19 17:10:00,
2013-07-19 13:15:00,91.5,77.6,30.07,WNW,288,4.0,11.0,64,0.00,,SCT,0.01,707.00,VWS V14.01,2013-07-19 17:15:00,
2013-07-19 13:20:00,92.3,78.4,30.07,NW,315,6.0,11.0,64,0.00,,SCT,0.01,163.00,VWS V14.01,2013-07-19 17:20:00,
2013-07-19 13:25:00,91.7,76.8,30.07,WNW,294,4.0,12.0,62,0.00,,SCT,0.01,840.00,VWS V14.01,2013-07-19 17:25:00,
2013-07-19 13:30:00,91.5,77.6,30.07,North,9,8.0,12.0,64,0.00,,SCT,0.01,271.00,VWS V14.01,2013-07-19 17:30:00,
2013-07-19 13:35:00,92.4,77.5,30.06,North,360,9.0,12.0,62,0.00,,SCT,0.01,884.00,VWS V14.01,2013-07-19 17:35:00,
2013-07-19 13:40:00,93.3,77.3,30.06,NNE,14,10.0,12.0,60,0.00,,SCT,0.01,877.00,VWS V14.01,2013-07-19 17:40:00,
2013-07-19 13:45:00,93.6,79.1,30.06,North,360,8.0,12.0,63,0.00,,SCT,0.01,877.00,VWS V14.01,2013-07-19 17:45:00,
2013-07-19 13:50:00,93.3,77.8,30.05,NNE,29,10.0,14.0,61,0.00,,SCT,0.01,882.00,VWS V14.01,2013-07-19 17:50:00,
2013-07-19 13:55:00,93.0,77.1,30.05,NNE,21,5.0,11.0,60,0.00,,SCT,0.01,167.00,VWS V14.01,2013-07-19 17:55:00,
2013-07-19 14:00:00,91.8,76.4,30.05,NNW,343,7.0,11.0,61,0.00,,SCT,0.01,123.00,VWS V14.01,2013-07-19 18:00:00,
2013-07-19 14:05:00,91.6,77.2,30.05,NNE,13,7.0,11.0,63,0.00,,SCT,0.01,163.00,VWS V14.01,2013-07-19 18:05:00,
2013-07-19 14:10:00,91.5,77.1,30.05,North,10,6.0,11.0,63,0.00,,SCT,0.01,211.00,VWS V14.01,2013-07-19 18:10:00,
2013-07-19 14:15:00,91.2,77.3,30.05,NW,325,1.0,11.0,64,0.00,,SCT,0.01,260.00,VWS V14.01,2013-07-19 18:15:00,
2013-07-19 14:20:00,90.6,77.7,30.04,NNW,327,2.0,11.0,66,0.00,,SCT,0.01,244.00,VWS V14.01,2013-07-19 18:20:00,
2013-07-19 14:25:00,90.3,78.3,30.04,NW,323,4.0,11.0,68,0.00,,SCT,0.01,274.00,VWS V14.01,2013-07-19 18:25:00,
2013-07-19 14:30:00,90.3,77.9,30.03,NW,324,4.0,11.0,67,0.00,,SCT,0.01,272.00,VWS V14.01,2013-07-19 18:30:00,
2013-07-19 14:35:00,90.1,77.7,30.03,NNW,339,8.0,11.0,67,0.00,,SCT,0.01,364.00,VWS V14.01,2013-07-19 18:35:00,
2013-07-19 14:40:00,90.5,78.5,30.03,NNW,328,2.0,11.0,68,0.00,,SCT,0.01,622.00,VWS V14.01,2013-07-19 18:40:00,
2013-07-19 14:45:00,91.3,78.8,30.03,NW,321,2.0,11.0,67,0.00,,SCT,0.01,770.00,VWS V14.01,2013-07-19 18:45:00,
2013-07-19 14:50:00,91.2,77.8,30.03,NNW,337,5.0,11.0,65,0.00,,SCT,0.01,388.00,VWS V14.01,2013-07-19 18:50:00,
2013-07-19 14:55:00,91.5,77.6,30.02,NNW,331,4.0,12.0,64,0.00,,SCT,0.01,802.00,VWS V14.01,2013-07-19 18:55:00,
2013-07-19 15:00:00,91.9,77.5,30.02,NW,316,4.0,12.0,63,0.00,,SCT,0.01,793.00,VWS V14.01,2013-07-19 19:00:00,
2013-07-19 15:05:00,91.7,77.8,30.02,North,9,5.0,12.0,64,0.00,,SCT,0.01,207.00,VWS V14.01,2013-07-19 19:05:00,
2013-07-19 15:10:00,90.9,77.5,30.02,North,355,5.0,12.0,65,0.00,,SCT,0.01,489.00,VWS V14.01,2013-07-19 19:10:00,
2013-07-19 15:15:00,90.4,77.5,30.02,NNW,338,4.0,12.0,66,0.00,,SCT,0.01,225.00,VWS V14.01,2013-07-19 19:15:00,
2013-07-19 15:20:00,90.5,78.1,30.02,NNE,27,5.0,12.0,67,0.00,,SCT,0.01,459.00,VWS V14.01,2013-07-19 19:20:00,
2013-07-19 15:25:00,91.1,78.2,30.02,NNW,343,3.0,12.0,66,0.00,,SCT,0.01,661.00,VWS V14.01,2013-07-19 19:25:00,
2013-07-19 15:30:00,91.3,78.3,30.01,NNW,348,8.0,12.0,66,0.00,,SCT,0.01,708.00,VWS V14.01,2013-07-19 19:30:00,
2013-07-19 15:35:00,91.5,78.5,30.01,North,355,6.0,12.0,66,0.00,,SCT,0.01,550.00,VWS V14.01,2013-07-19 19:35:00,
2013-07-19 15:40:00,91.3,78.8,30.01,North,355,6.0,12.0,67,0.00,,SCT,0.01,575.00,VWS V14.01,2013-07-19 19:40:00,
2013-07-19 15:45:00,90.9,78.0,30.01,North,5,6.0,12.0,66,0.00,,SCT,0.01,582.00,VWS V14.01,2013-07-19 19:45:00,
2013-07-19 15:50:00,91.7,77.8,30.01,NNW,345,7.0,12.0,64,0.00,,SCT,0.01,624.00,VWS V14.01,2013-07-19 19:50:00,
2013-07-19 15:55:00,92.6,78.2,30.01,North,355,4.0,10.0,63,0.00,,SCT,0.01,635.00,VWS V14.01,2013-07-19 19:55:00,
2013-07-19 16:00:00,92.8,77.9,30.00,NNE,30,6.0,10.0,62,0.00,,SCT,0.01,621.00,VWS V14.01,2013-07-19 20:00:00,
2013-07-19 16:05:00,92.9,78.4,30.00,NNE,18,4.0,10.0,63,0.00,,SCT,0.01,596.00,VWS V14.01,2013-07-19 20:05:00,
2013-07-19 16:10:00,93.2,77.3,30.00,NNE,22,8.0,13.0,60,0.00,,SCT,0.01,585.00,VWS V14.01,2013-07-19 20:10:00,
2013-07-19 16:15:00,92.9,77.5,30.00,NNE,13,4.0,13.0,61,0.00,,SCT,0.01,577.00,VWS V14.01,2013-07-19 20:15:00,
2013-07-19 16:20:00,93.0,77.6,30.00,NNW,342,0.0,13.0,61,0.00,,SCT,0.01,573.00,VWS V14.01,2013-07-19 20:20:00,
2013-07-19 16:25:00,92.2,76.3,30.01,North,350,0.0,13.0,60,0.00,,SCT,0.01,575.00,VWS V14.01,2013-07-19 20:25:00,
2013-07-19 16:30:00,92.8,76.9,30.01,NNE,32,0.0,13.0,60,0.00,,SCT,0.01,450.00,VWS V14.01,2013-07-19 20:30:00,
2013-07-19 16:35:00,93.2,76.2,30.02,NNE,26,0.0,13.0,58,0.00,,SCT,0.01,471.00,VWS V14.01,2013-07-19 20:35:00,
2013-07-19 16:40:00,92.3,75.9,30.03,NNE,21,0.0,13.0,59,0.00,,SCT,0.01,290.00,VWS V14.01,2013-07-19 20:40:00,
2013-07-19 16:45:00,92.6,76.7,30.02,NE,40,0.0,13.0,60,0.00,,SCT,0.01,315.00,VWS V14.01,2013-07-19 20:45:00,
2013-07-19 16:50:00,92.5,76.1,30.02,NNE,17,0.0,13.0,59,0.00,,SCT,0.01,336.00,VWS V14.01,2013-07-19 20:50:00,
2013-07-19 16:55:00,92.4,75.5,30.02,North,11,0.0,0.0,58,0.00,,SCT,0.01,311.00,VWS V14.01,2013-07-19 20:55:00,
2013-07-19 17:00:00,92.0,75.6,30.01,NNE,25,0.0,0.0,59,0.00,,SCT,0.01,299.00,VWS V14.01,2013-07-19 21:00:00,
2013-07-19 17:05:00,92.0,75.1,30.01,NNE,17,0.0,0.0,58,0.00,,SCT,0.01,265.00,VWS V14.01,2013-07-19 21:05:00,
2013-07-19 17:10:00,92.1,76.2,30.01,NNW,347,0.0,0.0,60,0.00,,SCT,0.01,239.00,VWS V14.01,2013-07-19 21:10:00,
2013-07-19 17:15:00,91.8,75.9,30.01,North,9,0.0,0.0,60,0.00,,SCT,0.01,220.00,VWS V14.01,2013-07-19 21:15:00,
2013-07-19 17:20:00,91.9,75.5,30.00,NNE,18,0.0,0.0,59,0.00,,SCT,0.01,151.00,VWS V14.01,2013-07-19 21:20:00,
2013-07-19 17:25:00,91.5,75.7,30.00,NNE,30,0.0,0.0,60,0.00,,SCT,0.01,142.00,VWS V14.01,2013-07-19 21:25:00,
2013-07-19 17:30:00,91.1,76.8,30.00,NNW,337,0.0,0.0,63,0.00,,SCT,0.01,142.00,VWS V14.01,2013-07-19 21:30:00,
2013-07-19 17:35:00,90.2,77.8,30.00,NNW,339,0.0,0.0,67,0.00,,SCT,0.01,142.00,VWS V14.01,2013-07-19 21:35:00,
2013-07-19 17:40:00,89.3,77.8,30.00,NNW,342,0.0,0.0,69,0.00,,SCT,0.01,137.00,VWS V14.01,2013-07-19 21:40:00,
2013-07-19 17:45:00,88.8,78.2,30.00,North,355,0.0,2.0,71,0.00,,SCT,0.01,132.00,VWS V14.01,2013-07-19 21:45:00,
2013-07-19 17:50:00,88.9,78.3,30.00,North,5,2.0,4.0,71,0.00,,SCT,0.01,105.00,VWS V14.01,2013-07-19 21:50:00,
2013-07-19 17:55:00,89.7,78.2,30.01,NNE,22,3.0,5.0,69,0.00,,SCT,0.01,105.00,VWS V14.01,2013-07-19 21:55:00,
2013-07-19 18:00:00,89.9,78.8,30.01,NNE,25,2.0,6.0,70,0.00,,SCT,0.01,111.00,VWS V14.01,2013-07-19 22:00:00,
2013-07-19 18:05:00,89.3,77.8,30.01,NE,38,7.0,8.0,69,0.00,,SCT,0.01,107.00,VWS V14.01,2013-07-19 22:05:00,
2013-07-19 18:10:00,89.6,77.6,30.01,NNE,33,4.0,8.0,68,0.00,,SCT,0.01,102.00,VWS V14.01,2013-07-19 22:10:00,
2013-07-19 18:15:00,89.1,78.0,30.01,ENE,77,0.0,8.0,70,0.00,,SCT,0.01,91.00,VWS V14.01,2013-07-19 22:15:00,
2013-07-19 18:20:00,88.4,77.8,30.00,ENE,66,0.0,8.0,71,0.00,,SCT,0.01,84.00,VWS V14.01,2013-07-19 22:20:00,
2013-07-19 18:25:00,88.2,79.3,30.00,NE,52,0.0,8.0,75,0.00,,SCT,0.01,79.00,VWS V14.01,2013-07-19 22:25:00,
2013-07-19 18:30:00,87.9,78.2,30.00,East,87,3.0,8.0,73,0.00,,SCT,0.01,72.00,VWS V14.01,2013-07-19 22:30:00,
2013-07-19 18:35:00,87.6,77.9,30.00,NNE,32,4.0,8.0,73,0.00,,SCT,0.01,70.00,VWS V14.01,2013-07-19 22:35:00,
2013-07-19 18:40:00,87.5,76.9,30.00,East,80,4.0,8.0,71,0.00,,SCT,0.01,65.00,VWS V14.01,2013-07-19 22:40:00,
2013-07-19 18:45:00,87.2,78.7,29.99,ENE,70,0.0,8.0,76,0.00,,SCT,0.01,60.00,VWS V14.01,2013-07-19 22:45:00,
2013-07-19 18:50:00,87.1,77.8,29.99,NNE,14,4.0,8.0,74,0.00,,SCT,0.01,56.00,VWS V14.01,2013-07-19 22:50:00,
2013-07-19 18:55:00,86.8,77.9,29.99,NNE,13,2.0,3.0,75,0.00,,SCT,0.01,49.00,VWS V14.01,2013-07-19 22:55:00,
2013-07-19 19:00:00,87.1,77.4,29.99,NNE,26,3.0,8.0,73,0.00,,SCT,0.01,54.00,VWS V14.01,2013-07-19 23:00:00,
2013-07-19 19:02:00,86.2,78.5,29.99,NNE,17,2.0,4.0,78,0.00,,SCT,0.01,47.00,VWS V14.01,2013-07-19 23:02:00,
2013-07-19 19:07:00,86.0,77.9,29.99,NNE,18,4.0,4.0,77,0.00,,SCT,0.01,44.00,VWS V14.01,2013-07-19 23:07:00,
2013-07-19 19:12:00,86.3,77.8,29.99,NNE,13,3.0,5.0,76,0.00,,SCT,0.01,42.00,VWS V14.01,2013-07-19 23:12:00,
2013-07-19 19:17:00,86.5,77.6,29.99,NNE,12,1.0,5.0,75,0.00,,SCT,0.01,39.00,VWS V14.01,2013-07-19 23:17:00,
2013-07-19 19:22:00,85.9,77.1,29.99,North,360,2.0,5.0,75,0.00,,SCT,0.01,35.00,VWS V14.01,2013-07-19 23:22:00,
2013-07-19 19:27:00,86.0,76.8,29.99,NNE,24,1.0,5.0,74,0.00,,SCT,0.01,32.00,VWS V14.01,2013-07-19 23:27:00,
2013-07-19 19:32:00,86.3,77.0,29.99,NNE,31,2.0,5.0,74,0.01,,SCT,0.02,30.00,VWS V14.01,2013-07-19 23:32:00,
2013-07-19 19:37:00,86.2,76.9,30.00,NNE,28,0.0,5.0,74,0.01,,SCT,0.02,28.00,VWS V14.01,2013-07-19 23:37:00,
2013-07-19 19:42:00,85.7,77.7,30.00,NNE,28,1.0,5.0,77,0.01,,SCT,0.02,26.00,VWS V14.01,2013-07-19 23:42:00,
2013-07-19 19:47:00,85.2,76.8,30.00,NE,38,2.0,5.0,76,0.01,,SCT,0.02,23.00,VWS V14.01,2013-07-19 23:47:00,
2013-07-19 19:52:00,85.3,76.5,30.00,NE,39,0.0,5.0,75,0.01,,SCT,0.02,19.00,VWS V14.01,2013-07-19 23:52:00,
2013-07-19 19:57:00,84.9,77.7,30.00,NE,39,0.0,1.0,79,0.01,,SCT,0.02,16.00,VWS V14.01,2013-07-19 23:57:00,
2013-07-19 20:00:00,85.3,76.5,30.00,NE,39,1.0,5.0,75,0.01,,SCT,0.02,19.00,VWS V14.01,2013-07-20 00:00:00,
2013-07-19 20:02:00,84.7,77.8,30.01,NE,45,0.0,3.0,80,0.01,,SCT,0.02,12.00,VWS V14.01,2013-07-20 00:02:00,
2013-07-19 20:07:00,84.5,77.7,30.01,NE,46,0.0,3.0,80,0.01,,SCT,0.02,7.00,VWS V14.01,2013-07-20 00:07:00,
2013-07-19 20:12:00,84.2,78.1,30.01,NE,46,0.0,3.0,82,0.01,,SCT,0.02,5.00,VWS V14.01,2013-07-20 00:12:00,
2013-07-19 20:17:00,83.2,77.1,30.01,NE,46,0.0,3.0,82,0.01,,SCT,0.02,0.00,VWS V14.01,2013-07-20 00:17:00,
2013-07-19 20:22:00,83.2,76.8,30.01,NE,46,0.0,3.0,81,0.01,,SCT,0.02,0.00,VWS V14.01,2013-07-20 00:22:00,
2013-07-19 20:27:00,83.2,76.8,30.01,NNE,31,0.0,3.0,81,0.01,,SCT,0.02,0.00,VWS V14.01,2013-07-20 00:27:00,
2013-07-19 20:32:00,83.2,76.8,30.01,NNE,31,0.0,3.0,81,0.01,,SCT,0.02,0.00,VWS V14.01,2013-07-20 00:32:00,
2013-07-19 20:37:00,83.2,76.4,30.02,NNE,31,0.0,3.0,80,0.01,,SCT,0.02,0.00,VWS V14.01,2013-07-20 00:37:00,
2013-07-19 20:42:00,83.5,76.7,30.01,NNE,31,0.0,3.0,80,0.01,,SCT,0.02,0.00,VWS V14.01,2013-07-20 00:42:00,
2013-07-19 20:47:00,83.5,76.3,30.01,NNE,31,0.0,3.0,79,0.01,,SCT,0.02,0.00,VWS V14.01,2013-07-20 00:47:00,
2013-07-19 20:52:00,83.0,76.6,30.02,NNE,30,0.0,3.0,81,0.01,,SCT,0.02,0.00,VWS V14.01,2013-07-20 00:52:00,
2013-07-19 20:57:00,83.0,76.2,30.02,NNE,30,0.0,0.0,80,0.00,,SCT,0.02,0.00,VWS V14.01,2013-07-20 00:57:00,
2013-07-19 21:00:00,82.9,76.5,30.02,NNE,30,0.0,3.0,81,0.01,,SCT,0.02,0.00,VWS V14.01,2013-07-20 01:00:00,
2013-07-19 21:02:00,83.0,76.6,30.02,NNE,30,0.0,0.0,81,0.00,,SCT,0.02,0.00,VWS V14.01,2013-07-20 01:02:00,
2013-07-19 21:07:00,82.7,76.7,30.02,NNE,30,0.0,0.0,82,0.00,,SCT,0.02,0.00,VWS V14.01,2013-07-20 01:07:00,
2013-07-19 21:12:00,82.3,76.6,30.02,NNE,30,0.0,0.0,83,0.00,,SCT,0.02,0.00,VWS V14.01,2013-07-20 01:12:00,
2013-07-19 21:17:00,82.3,77.3,30.02,NNE,30,0.0,0.0,85,0.00,,SCT,0.02,0.00,VWS V14.01,2013-07-20 01:17:00,
2013-07-19 21:22:00,82.3,77.0,30.03,NNE,30,0.0,0.0,84,0.00,,SCT,0.02,0.00,VWS V14.01,2013-07-20 01:22:00,
2013-07-19 21:27:00,82.3,77.0,30.03,NNE,30,0.0,1.0,84,0.00,,SCT,0.02,0.00,VWS V14.01,2013-07-20 01:27:00,
2013-07-19 21:32:00,81.3,76.7,30.03,NNE,30,0.0,1.0,86,0.00,,SCT,0.02,0.00,VWS V14.01,2013-07-20 01:32:00,
2013-07-19 21:37:00,81.1,76.2,30.03,NNE,29,0.0,1.0,85,0.00,,SCT,0.02,0.00,VWS V14.01,2013-07-20 01:37:00,
2013-07-19 21:42:00,81.4,76.1,30.03,WSW,243,0.0,3.0,84,0.00,,SCT,0.02,0.00,VWS V14.01,2013-07-20 01:42:00,
2013-07-19 21:47:00,81.2,75.9,30.03,West,262,0.0,3.0,84,0.00,,SCT,0.02,0.00,VWS V14.01,2013-07-20 01:47:00,
2013-07-19 22:00:00,81.1,75.8,30.03,West,262,0.0,3.0,84,0.00,,SCT,0.02,0.00,VWS V14.01,2013-07-20 02:00:00,
2013-07-19 23:00:00,79.9,76.0,30.03,North,5,2.0,4.0,88,0.00,,SCT,0.02,0.00,VWS V14.01,2013-07-20 03:00:00,